Time;durP1;ratioP1;P1;durP2;ratioP2;P2;SDS_P1;SDS_P2;PMS_P1;PMS_P2;Temp;Humidity;BMP_temperature;BMP_pressure;BME280_temperature;BME280_humidity;BME280_pressure;Samples;Min_cycle;Max_cycle;Signal;HPM_P1;HPM_P2
2021/09/11 00:00:02;;;;;;;5.70;5.10;;;;;23.80;100371.00;;;;2069342;28;20587;-57
2021/09/11 00:01:03;;;;;;;5.18;4.57;;;;;23.70;100354.00;;;;2069520;28;20264;-56
2021/09/11 00:02:03;;;;;;;5.50;5.00;;;;;23.70;100357.00;;;;2070445;28;20691;-56
2021/09/11 00:03:04;;;;;;;5.83;5.03;;;;;23.70;100359.00;;;;2070643;28;20207;-57
2021/09/11 00:04:04;;;;;;;5.70;5.17;;;;;23.80;100365.00;;;;2070371;28;20218;-57
2021/09/11 00:05:05;;;;;;;6.07;5.20;;;;;23.80;100358.00;;;;2070172;28;20225;-57
2021/09/11 00:06:06;;;;;;;6.13;4.77;;;;;23.80;100361.00;;;;2070541;28;20218;-57
2021/09/11 00:07:06;;;;;;;5.97;5.07;;;;;23.70;100361.00;;;;2067806;28;20457;-58
2021/09/11 00:08:06;;;;;;;5.50;4.53;;;;;23.80;100363.00;;;;2063548;28;20246;-56
2021/09/11 00:09:07;;;;;;;6.20;5.57;;;;;23.80;100367.00;;;;2061821;28;20687;-56
2021/09/11 00:10:08;;;;;;;5.87;4.90;;;;;23.70;100364.00;;;;2062887;28;20227;-56
2021/09/11 00:11:08;;;;;;;6.45;4.75;;;;;23.70;100366.00;;;;2062896;28;20218;-56
2021/09/11 00:12:09;;;;;;;7.93;5.00;;;;;23.70;100372.00;;;;2062551;28;20647;-56
2021/09/11 00:13:09;;;;;;;5.33;4.83;;;;;23.70;100370.00;;;;2062729;28;20285;-57
2021/09/11 00:14:10;;;;;;;6.30;5.40;;;;;23.70;100367.00;;;;2062975;28;20211;-56
2021/09/11 00:15:11;;;;;;;5.67;5.17;;;;;23.70;100360.00;;;;2063020;28;20223;-56
2021/09/11 00:16:12;;;;;;;6.20;5.30;;;;;23.70;100369.00;;;;2062198;28;20219;-56
2021/09/11 00:17:12;;;;;;;5.60;4.93;;;;;23.80;100374.00;;;;2063018;28;20218;-57
2021/09/11 00:18:12;;;;;;;5.73;5.13;;;;;23.80;100362.00;;;;2064223;28;20211;-56
2021/09/11 00:19:13;;;;;;;5.43;4.90;;;;;23.70;100363.00;;;;2070012;28;20272;-56
2021/09/11 00:20:13;;;;;;;5.40;4.90;;;;;23.70;100362.00;;;;2071050;28;20325;-56
2021/09/11 00:21:13;;;;;;;5.80;5.07;;;;;23.70;100364.00;;;;2071103;28;20709;-56
2021/09/11 00:22:14;;;;;;;5.23;4.53;;;;;23.60;100359.00;;;;2070725;28;20579;-57
2021/09/11 00:23:14;;;;;;;5.67;5.13;;;;;23.70;100367.00;;;;2070423;28;20214;-57
2021/09/11 00:24:14;;;;;;;6.13;4.70;;;;;23.70;100367.00;;;;2070707;28;20213;-56
2021/09/11 00:25:15;;;;;;;5.23;4.73;;;;;23.70;100364.00;;;;2070837;28;20225;-57
2021/09/11 00:26:15;;;;;;;5.40;4.90;;;;;23.70;100364.00;;;;2070932;28;20700;-56
2021/09/11 00:27:15;;;;;;;6.63;4.97;;;;;23.70;100361.00;;;;2070931;28;20206;-56
2021/09/11 00:28:16;;;;;;;5.87;5.03;;;;;23.70;100366.00;;;;2070955;28;20210;-57
2021/09/11 00:29:16;;;;;;;4.73;4.33;;;;;23.70;100362.00;;;;2069069;28;20225;-56
2021/09/11 00:30:17;;;;;;;5.57;5.07;;;;;23.70;100363.00;;;;2070608;28;20222;-57
2021/09/11 00:31:17;;;;;;;5.20;4.57;;;;;23.70;100365.00;;;;2070634;28;20218;-56
2021/09/11 00:32:17;;;;;;;5.83;5.23;;;;;23.70;100362.00;;;;2070912;28;20218;-55
2021/09/11 00:33:18;;;;;;;5.80;5.13;;;;;23.70;100365.00;;;;2070799;28;20333;-57
2021/09/11 00:34:18;;;;;;;5.90;4.83;;;;;23.70;100367.00;;;;2070748;28;20210;-57
2021/09/11 00:35:19;;;;;;;5.03;4.30;;;;;23.70;100357.00;;;;2070214;28;20218;-56
2021/09/11 00:36:19;;;;;;;5.50;5.00;;;;;23.70;100369.00;;;;2070289;28;20619;-57
2021/09/11 00:37:19;;;;;;;5.20;4.70;;;;;23.70;100360.00;;;;2065472;28;20358;-56
2021/09/11 00:38:20;;;;;;;5.20;4.67;;;;;23.70;100362.00;;;;2062748;28;20303;-56
2021/09/11 00:39:21;;;;;;;5.17;4.53;;;;;23.70;100366.00;;;;2061330;28;20222;-57
2021/09/11 00:40:21;;;;;;;5.17;4.70;;;;;23.70;100367.00;;;;2062628;28;20298;-56
2021/09/11 00:41:21;;;;;;;6.80;4.73;;;;;23.70;100368.00;;;;2062814;28;20210;-57
2021/09/11 00:42:22;;;;;;;6.03;4.50;;;;;23.70;100350.00;;;;2062164;28;20219;-57
2021/09/11 00:43:23;;;;;;;4.87;4.37;;;;;23.70;100358.00;;;;2062065;28;20222;-59
2021/09/11 00:44:23;;;;;;;5.90;4.50;;;;;23.70;100368.00;;;;2062155;28;20706;-58
2021/09/11 00:45:23;;;;;;;4.80;4.10;;;;;23.70;100369.00;;;;2062374;28;20211;-57
2021/09/11 00:46:24;;;;;;;5.30;4.80;;;;;23.70;100368.00;;;;2061834;28;20333;-57
2021/09/11 00:47:24;;;;;;;4.77;4.37;;;;;23.70;100368.00;;;;2062014;28;20265;-56
2021/09/11 00:48:25;;;;;;;6.00;4.57;;;;;23.70;100366.00;;;;2061752;28;20238;-57
2021/09/11 00:49:25;;;;;;;4.27;3.93;;;;;23.70;100371.00;;;;2060800;28;20294;-57
2021/09/11 00:50:25;;;;;;;6.47;4.70;;;;;23.70;100370.00;;;;2062388;28;20219;-57
2021/09/11 00:51:26;;;;;;;4.80;4.27;;;;;23.70;100366.00;;;;2058631;28;20646;-57
2021/09/11 00:52:26;;;;;;;4.80;4.30;;;;;23.70;100364.00;;;;2062689;28;20223;-57
2021/09/11 00:53:26;;;;;;;5.90;4.30;;;;;23.70;100360.00;;;;2062002;28;20215;-56
2021/09/11 00:54:27;;;;;;;4.80;4.40;;;;;23.70;100373.00;;;;2061952;28;20295;-56
2021/09/11 00:55:27;;;;;;;4.77;4.30;;;;;23.70;100372.00;;;;2062517;28;20269;-56
2021/09/11 00:56:28;;;;;;;4.80;4.40;;;;;23.70;100367.00;;;;2062647;28;20227;-56
2021/09/11 00:57:28;;;;;;;4.80;4.40;;;;;23.70;100369.00;;;;2061122;28;20214;-57
2021/09/11 00:58:29;;;;;;;4.77;4.10;;;;;23.70;100372.00;;;;2061431;28;20230;-56
2021/09/11 00:59:29;;;;;;;5.33;4.27;;;;;23.70;100376.00;;;;2059490;28;20318;-57
2021/09/11 01:00:30;;;;;;;5.33;4.80;;;;;23.70;100371.00;;;;2061028;28;20305;-56
2021/09/11 01:01:30;;;;;;;5.53;4.30;;;;;23.70;100365.00;;;;2055555;28;20214;-58
2021/09/11 01:02:30;;;;;;;5.30;4.73;;;;;23.70;100370.00;;;;2061944;28;20261;-56
2021/09/11 01:03:31;;;;;;;5.07;4.50;;;;;23.70;100368.00;;;;2067915;28;20218;-57
2021/09/11 01:04:31;;;;;;;5.00;4.50;;;;;23.70;100372.00;;;;2070052;28;20618;-57
2021/09/11 01:05:31;;;;;;;5.10;4.60;;;;;23.70;100367.00;;;;2069898;28;20300;-57
2021/09/11 01:06:32;;;;;;;4.60;4.00;;;;;23.70;100367.00;;;;2070723;28;20210;-57
2021/09/11 01:07:34;;;;;;;4.90;4.40;;;;;23.70;100371.00;;;;2063322;28;20226;-57
2021/09/11 01:08:34;;;;;;;4.47;4.07;;;;;23.70;100374.00;;;;2058273;28;20639;-57
2021/09/11 01:09:34;;;;;;;4.70;4.20;;;;;23.70;100369.00;;;;2060945;28;20226;-58
2021/09/11 01:10:37;;;;;;;5.80;4.80;;;;;23.70;100384.00;;;;2062292;28;20694;-56
2021/09/11 01:11:37;;;;;;;6.95;4.70;;;;;23.70;100369.00;;;;2061155;28;20226;-56
2021/09/11 01:12:38;;;;;;;4.80;4.30;;;;;23.70;100373.00;;;;2052851;28;20299;-58
2021/09/11 01:13:38;;;;;;;4.60;4.07;;;;;23.70;100371.00;;;;2052693;28;20309;-57
2021/09/11 01:14:39;;;;;;;4.70;4.20;;;;;23.70;100373.00;;;;2062045;28;20513;-56
2021/09/11 01:15:40;;;;;;;4.77;3.93;;;;;23.70;100375.00;;;;2061718;28;20235;-56
2021/09/11 01:16:40;;;;;;;4.60;4.20;;;;;23.70;100377.00;;;;2061904;28;20302;-57
2021/09/11 01:17:41;;;;;;;4.60;4.20;;;;;23.70;100372.00;;;;2061759;28;20944;-56
2021/09/11 01:18:42;;;;;;;5.68;4.43;;;;;23.70;100381.00;;;;2061120;28;20683;-57
2021/09/11 01:19:43;;;;;;;4.37;3.97;;;;;23.70;100375.00;;;;2060372;28;20273;-57
2021/09/11 01:20:43;;;;;;;4.30;3.90;;;;;23.70;100375.00;;;;2061466;28;20222;-56
2021/09/11 01:21:43;;;;;;;4.57;3.80;;;;;23.70;100373.00;;;;2061928;28;20466;-56
2021/09/11 01:22:44;;;;;;;4.90;4.30;;;;;23.70;100379.00;;;;2065800;28;20687;-56
2021/09/11 01:23:44;;;;;;;5.03;4.63;;;;;23.70;100377.00;;;;2061670;28;20550;-56
2021/09/11 01:24:58;;;;;;;5.00;4.50;;;;;23.70;100376.00;;;;2062504;28;20266;-56
2021/09/11 01:25:58;;;;;;;4.38;3.97;;;;;23.70;100378.00;;;;2058968;28;20700;-56
2021/09/11 01:26:59;;;;;;;4.57;4.10;;;;;23.70;100370.00;;;;2061786;28;20226;-56
2021/09/11 01:27:59;;;;;;;4.50;3.67;;;;;23.70;100378.00;;;;2061724;28;20219;-56
2021/09/11 01:29:00;;;;;;;4.90;4.20;;;;;23.70;100382.00;;;;2059247;28;20210;-58
2021/09/11 01:30:04;;;;;;;6.40;4.10;;;;;23.70;100386.00;;;;2062282;28;20227;-57
2021/09/11 01:31:04;;;;;;;7.22;4.65;;;;;23.70;100381.00;;;;2061104;28;20215;-57
2021/09/11 01:32:13;;;;;;;6.37;4.73;;;;;23.70;100396.00;;;;2062420;28;20535;-57
2021/09/11 01:33:14;;;;;;;10.00;5.03;;;;;23.70;100383.00;;;;2061777;28;20218;-58
2021/09/11 01:34:14;;;;;;;6.93;4.53;;;;;23.70;100383.00;;;;2061973;28;20726;-57
2021/09/11 01:35:14;;;;;;;8.93;4.83;;;;;23.70;100385.00;;;;2062456;28;20222;-58
2021/09/11 01:36:15;;;;;;;9.30;4.80;;;;;23.70;100384.00;;;;2062596;28;20215;-57
2021/09/11 01:37:16;;;;;;;10.70;4.80;;;;;23.70;100380.00;;;;2062528;28;20691;-58
2021/09/11 01:38:16;;;;;;;10.53;4.47;;;;;23.70;100378.00;;;;2062161;28;20215;-57
2021/09/11 01:39:16;;;;;;;13.23;4.27;;;;;23.70;100387.00;;;;2061271;28;20449;-57
2021/09/11 01:40:17;;;;;;;11.20;4.77;;;;;23.70;100384.00;;;;2062203;28;20214;-57
2021/09/11 01:41:17;;;;;;;6.53;4.27;;;;;23.70;100379.00;;;;2064235;28;20211;-58
2021/09/11 01:42:24;;;;;;;9.10;4.57;;;;;23.70;100387.00;;;;2064031;28;20233;-57
2021/09/11 01:43:29;;;;;;;7.53;4.15;;;;;23.70;100390.00;;;;2060993;28;20211;-57
2021/09/11 01:44:29;;;;;;;9.02;4.30;;;;;23.70;100389.00;;;;2064131;28;20295;-57
2021/09/11 01:45:29;;;;;;;8.30;4.30;;;;;23.70;100398.00;;;;2063979;28;20222;-57
2021/09/11 01:46:30;;;;;;;16.03;4.60;;;;;23.70;100385.00;;;;2063935;28;20215;-57
2021/09/11 01:47:30;;;;;;;10.97;4.50;;;;;23.70;100392.00;;;;2064174;28;20225;-57
2021/09/11 01:48:30;;;;;;;8.07;4.60;;;;;23.70;100390.00;;;;2064130;28;20588;-57
2021/09/11 01:49:31;;;;;;;6.37;3.93;;;;;23.70;100389.00;;;;2062697;28;20217;-57
2021/09/11 01:50:31;;;;;;;9.77;4.40;;;;;23.70;100392.00;;;;2064983;28;20230;-57
2021/09/11 01:51:31;;;;;;;7.57;4.50;;;;;23.70;100389.00;;;;2066818;28;20301;-57
2021/09/11 01:52:32;;;;;;;6.60;4.43;;;;;23.70;100389.00;;;;2064020;28;20314;-57
2021/09/11 01:53:32;;;;;;;6.87;4.00;;;;;23.70;100393.00;;;;2064047;28;20221;-57
2021/09/11 01:54:33;;;;;;;8.97;4.77;;;;;23.70;100392.00;;;;2064047;28;20219;-57
2021/09/11 01:55:33;;;;;;;5.93;4.30;;;;;23.70;100389.00;;;;2064050;28;20243;-58
2021/09/11 01:56:33;;;;;;;8.23;3.93;;;;;23.70;100388.00;;;;2067664;28;20223;-57
2021/09/11 01:57:44;;;;;;;7.37;3.60;;;;;23.70;100392.00;;;;2071959;28;20217;-57
2021/09/11 01:58:44;;;;;;;8.15;4.13;;;;;23.70;100391.00;;;;2071322;28;20222;-57
2021/09/11 01:59:45;;;;;;;4.30;3.20;;;;;23.70;100386.00;;;;2071813;28;20698;-57
2021/09/11 02:00:45;;;;;;;6.57;3.97;;;;;23.70;100394.00;;;;2071234;28;20248;-57
2021/09/11 02:01:45;;;;;;;5.60;3.80;;;;;23.70;100397.00;;;;2071998;28;20218;-57
2021/09/11 02:02:46;;;;;;;5.10;3.47;;;;;23.70;100399.00;;;;2071651;28;20738;-58
2021/09/11 02:03:46;;;;;;;7.40;3.97;;;;;23.70;100363.00;;;;2072050;28;20241;-57
2021/09/11 02:04:47;;;;;;;4.77;3.90;;;;;23.70;100395.00;;;;2072289;28;20690;-57
2021/09/11 02:05:47;;;;;;;7.87;3.77;;;;;23.70;100393.00;;;;2067947;28;20215;-57
2021/09/11 02:06:47;;;;;;;13.00;4.00;;;;;23.70;100389.00;;;;2071049;28;20217;-57
2021/09/11 02:07:48;;;;;;;5.50;3.80;;;;;23.70;100395.00;;;;2065358;28;20207;-57
2021/09/11 02:08:48;;;;;;;7.20;4.17;;;;;23.70;100403.00;;;;2063243;28;20203;-57
2021/09/11 02:09:49;;;;;;;5.67;3.50;;;;;23.70;100400.00;;;;2063825;28;20718;-58
2021/09/11 02:10:49;;;;;;;7.80;3.70;;;;;23.70;100395.00;;;;2062903;28;20359;-58
2021/09/11 02:11:49;;;;;;;4.17;3.43;;;;;23.70;100399.00;;;;2063073;28;20226;-57
2021/09/11 02:12:50;;;;;;;6.57;3.87;;;;;23.70;100402.00;;;;2072091;28;20229;-58
2021/09/11 02:13:50;;;;;;;6.00;3.37;;;;;23.70;100398.00;;;;2067234;28;20740;-57
2021/09/11 02:14:50;;;;;;;7.77;3.83;;;;;23.70;100405.00;;;;2064026;28;20219;-58
2021/09/11 02:15:51;;;;;;;6.00;3.80;;;;;23.70;100400.00;;;;2062105;28;20289;-57
2021/09/11 02:16:51;;;;;;;6.30;4.17;;;;;23.70;100406.00;;;;2061752;28;20305;-57
2021/09/11 02:17:51;;;;;;;6.30;4.10;;;;;23.70;100406.00;;;;2063440;28;20238;-57
2021/09/11 02:18:52;;;;;;;5.77;3.70;;;;;23.70;100401.00;;;;2062089;28;20234;-57
2021/09/11 02:19:52;;;;;;;4.80;3.80;;;;;23.70;100402.00;;;;2067327;28;20222;-57
2021/09/11 02:20:55;;;;;;;5.77;3.70;;;;;23.70;100395.00;;;;2070811;28;20830;-57
2021/09/11 02:21:55;;;;;;;5.78;4.00;;;;;23.70;100404.00;;;;2070750;28;20222;-57
2021/09/11 02:22:55;;;;;;;5.30;3.77;;;;;23.70;100400.00;;;;2062744;28;20222;-57
2021/09/11 02:23:56;;;;;;;4.97;3.67;;;;;23.70;100400.00;;;;2063238;28;20215;-57
2021/09/11 02:24:56;;;;;;;6.00;3.30;;;;;23.70;100406.00;;;;2063059;28;20207;-57
2021/09/11 02:25:57;;;;;;;5.40;3.50;;;;;23.70;100398.00;;;;2063134;28;21172;-58
2021/09/11 02:26:57;;;;;;;4.87;3.60;;;;;23.70;100407.00;;;;2063232;28;20219;-58
2021/09/11 02:27:57;;;;;;;7.97;4.47;;;;;23.70;100403.00;;;;2063263;28;20211;-57
2021/09/11 02:28:58;;;;;;;6.17;3.63;;;;;23.70;100402.00;;;;2061749;28;20215;-57
2021/09/11 02:29:59;;;;;;;4.40;3.67;;;;;23.70;100403.00;;;;2062864;28;20219;-57
2021/09/11 02:30:59;;;;;;;6.37;3.60;;;;;23.70;100409.00;;;;2068035;28;20928;-57
2021/09/11 02:32:01;;;;;;;4.43;3.37;;;;;23.70;100394.00;;;;2069754;28;20226;-57
2021/09/11 02:33:02;;;;;;;6.43;3.85;;;;;23.70;100394.00;;;;2063262;28;20599;-57
2021/09/11 02:34:02;;;;;;;9.43;4.10;;;;;23.70;100395.00;;;;2063054;28;20219;-57
2021/09/11 02:35:03;;;;;;;5.40;3.80;;;;;23.70;100392.00;;;;2063953;28;20219;-57
2021/09/11 02:36:03;;;;;;;4.90;3.67;;;;;23.70;100392.00;;;;2063571;28;20222;-57
2021/09/11 02:37:04;;;;;;;3.87;3.50;;;;;23.70;100393.00;;;;2063409;28;20364;-57
2021/09/11 02:38:04;;;;;;;5.73;4.00;;;;;23.70;100397.00;;;;2064851;28;20603;-57
2021/09/11 02:39:06;;;;;;;6.30;3.83;;;;;23.70;100395.00;;;;2062097;28;20466;-57
2021/09/11 02:40:07;;;;;;;5.63;3.85;;;;;23.70;100395.00;;;;2063683;28;20314;-57
2021/09/11 02:41:07;;;;;;;7.20;3.70;;;;;23.70;100398.00;;;;2063486;28;20218;-57
2021/09/11 02:42:08;;;;;;;4.80;3.80;;;;;23.70;100402.00;;;;2063570;28;20458;-57
2021/09/11 02:43:08;;;;;;;5.43;3.70;;;;;23.70;100396.00;;;;2063873;28;20716;-57
2021/09/11 02:44:08;;;;;;;5.87;3.33;;;;;23.70;100401.00;;;;2063460;28;20219;-58
2021/09/11 02:45:09;;;;;;;8.03;3.50;;;;;23.70;100406.00;;;;2063731;28;20250;-57
2021/09/11 02:46:10;;;;;;;4.40;4.00;;;;;23.70;100403.00;;;;2063540;28;20303;-57
2021/09/11 02:47:11;;;;;;;5.93;4.05;;;;;23.70;100406.00;;;;2063333;28;20214;-57
2021/09/11 02:48:11;;;;;;;3.63;3.33;;;;;23.70;100407.00;;;;2063699;28;20215;-58
2021/09/11 02:49:12;;;;;;;4.67;3.50;;;;;23.70;100414.00;;;;2064368;28;20223;-57
2021/09/11 02:50:12;;;;;;;5.70;3.57;;;;;23.70;100397.00;;;;2071519;28;20226;-57
2021/09/11 02:51:12;;;;;;;5.30;3.63;;;;;23.70;100411.00;;;;2070642;28;20548;-57
2021/09/11 02:52:13;;;;;;;5.70;3.67;;;;;23.70;100407.00;;;;2071097;28;20225;-57
2021/09/11 02:53:13;;;;;;;3.67;3.00;;;;;23.70;100413.00;;;;2071406;28;20214;-57
2021/09/11 02:54:13;;;;;;;5.20;3.70;;;;;23.70;100415.00;;;;2071098;28;20758;-57
2021/09/11 02:55:14;;;;;;;6.07;3.40;;;;;23.70;100412.00;;;;2063319;28;20564;-57
2021/09/11 02:56:14;;;;;;;4.03;3.60;;;;;23.70;100414.00;;;;2063362;28;20207;-57
2021/09/11 02:57:14;;;;;;;5.00;3.37;;;;;23.70;100414.00;;;;2064786;28;20222;-57
2021/09/11 02:58:16;;;;;;;3.43;3.00;;;;;23.70;100415.00;;;;2070752;28;20214;-57
2021/09/11 02:59:16;;;;;;;3.95;3.33;;;;;23.70;100417.00;;;;2069615;28;20217;-57
2021/09/11 03:00:17;;;;;;;4.53;3.73;;;;;23.80;100409.00;;;;2070964;28;20210;-58
2021/09/11 03:01:17;;;;;;;4.07;3.33;;;;;23.80;100410.00;;;;2071530;28;20265;-57
2021/09/11 03:02:17;;;;;;;4.87;4.10;;;;;23.80;100408.00;;;;2071595;28;20213;-56
2021/09/11 03:03:18;;;;;;;9.17;4.70;;;;;23.80;100400.00;;;;2070949;28;20831;-57
2021/09/11 03:04:18;;;;;;;8.40;4.70;;;;;23.80;100412.00;;;;2070110;28;20222;-56
2021/09/11 03:05:18;;;;;;;4.60;3.90;;;;;23.70;100402.00;;;;2071097;28;20214;-55
2021/09/11 03:06:19;;;;;;;4.40;3.90;;;;;23.70;100395.00;;;;2070329;28;20214;-55
2021/09/11 03:07:19;;;;;;;6.10;4.47;;;;;23.70;100399.00;;;;2062347;28;20215;-56
2021/09/11 03:08:20;;;;;;;5.43;4.77;;;;;23.70;100388.00;;;;2062111;28;20221;-57
2021/09/11 03:09:20;;;;;;;6.77;4.70;;;;;23.70;100393.00;;;;2061192;28;20215;-56
2021/09/11 03:10:20;;;;;;;4.07;3.67;;;;;23.70;100399.00;;;;2063014;28;20702;-58
2021/09/11 03:11:21;;;;;;;6.40;3.67;;;;;23.70;100398.00;;;;2063471;28;20583;-57
2021/09/11 03:12:21;;;;;;;4.53;3.50;;;;;23.70;100403.00;;;;2063553;28;20265;-56
2021/09/11 03:13:21;;;;;;;3.60;3.30;;;;;23.50;100409.00;;;;2063186;28;20199;-56
2021/09/11 03:14:22;;;;;;;4.57;3.27;;;;;23.70;100410.00;;;;2063435;28;20218;-56
2021/09/11 03:15:22;;;;;;;5.03;3.37;;;;;23.70;100410.00;;;;2063309;28;20614;-56
2021/09/11 03:16:22;;;;;;;5.50;3.30;;;;;23.70;100414.00;;;;2063455;28;20265;-58
2021/09/11 03:17:23;;;;;;;5.87;3.67;;;;;23.70;100414.00;;;;2063478;28;20211;-58
2021/09/11 03:18:23;;;;;;;3.43;3.20;;;;;23.70;100412.00;;;;2063575;28;20291;-56
2021/09/11 03:19:24;;;;;;;4.10;3.70;;;;;23.70;100421.00;;;;2062197;28;20210;-57
2021/09/11 03:20:24;;;;;;;3.67;3.37;;;;;23.70;100410.00;;;;2062712;28;20462;-57
2021/09/11 03:21:25;;;;;;;4.40;3.30;;;;;23.70;100419.00;;;;2063431;28;20210;-57
2021/09/11 03:22:25;;;;;;;4.80;3.43;;;;;23.70;100421.00;;;;2063480;28;20214;-57
2021/09/11 03:23:25;;;;;;;4.30;3.40;;;;;23.70;100419.00;;;;2068744;28;20214;-56
2021/09/11 03:24:26;;;;;;;3.60;3.30;;;;;23.70;100407.00;;;;2070775;28;20249;-56
2021/09/11 03:25:26;;;;;;;4.13;3.57;;;;;23.70;100421.00;;;;2071460;28;20207;-56
2021/09/11 03:26:27;;;;;;;5.03;3.63;;;;;23.70;100414.00;;;;2071201;28;20214;-56
2021/09/11 03:27:27;;;;;;;3.93;3.53;;;;;23.70;100414.00;;;;2071044;28;20206;-57
2021/09/11 03:28:28;;;;;;;5.27;3.20;;;;;23.70;100412.00;;;;2070853;28;20202;-56
2021/09/11 03:29:29;;;;;;;3.42;3.00;;;;;23.70;100415.00;;;;2069321;28;20210;-57
2021/09/11 03:30:29;;;;;;;4.10;3.40;;;;;23.60;100412.00;;;;2070842;28;20313;-57
2021/09/11 03:31:29;;;;;;;4.10;3.17;;;;;23.70;100369.00;;;;2070042;28;20329;-56
2021/09/11 03:32:30;;;;;;;3.40;3.10;;;;;23.70;100412.00;;;;2071028;28;20319;-56
2021/09/11 03:33:30;;;;;;;4.03;3.13;;;;;23.70;100409.00;;;;2070927;28;20222;-57
2021/09/11 03:34:31;;;;;;;4.60;3.53;;;;;23.70;100410.00;;;;2070777;28;20581;-57
2021/09/11 03:35:31;;;;;;;4.13;3.67;;;;;23.70;100412.00;;;;2071014;28;20222;-58
2021/09/11 03:36:31;;;;;;;4.73;3.80;;;;;23.70;100418.00;;;;2071081;28;20699;-58
2021/09/11 03:37:32;;;;;;;3.67;3.37;;;;;23.70;100403.00;;;;2065505;28;20241;-56
2021/09/11 03:38:32;;;;;;;4.40;4.00;;;;;23.70;100410.00;;;;2061822;28;20210;-57
2021/09/11 03:39:32;;;;;;;3.60;3.30;;;;;23.70;100409.00;;;;2061550;28;20723;-57
2021/09/11 03:40:33;;;;;;;3.73;3.40;;;;;23.70;100416.00;;;;2062710;28;20237;-57
2021/09/11 03:41:33;;;;;;;3.50;3.20;;;;;23.70;100418.00;;;;2062922;28;21061;-57
2021/09/11 03:42:33;;;;;;;3.73;3.40;;;;;23.70;100414.00;;;;2061599;28;20222;-57
2021/09/11 03:43:34;;;;;;;4.20;3.80;;;;;23.70;100417.00;;;;2061838;28;20245;-56
2021/09/11 03:44:35;;;;;;;4.17;2.90;;;;;23.70;100417.00;;;;2062365;28;20215;-56
2021/09/11 03:45:35;;;;;;;3.58;3.28;;;;;23.70;100415.00;;;;2062665;28;20221;-57
2021/09/11 03:46:36;;;;;;;3.93;3.57;;;;;23.70;100421.00;;;;2062061;28;20230;-58
2021/09/11 03:47:36;;;;;;;3.30;3.00;;;;;23.70;100414.00;;;;2062535;28;20234;-57
2021/09/11 03:48:36;;;;;;;3.50;3.17;;;;;23.70;100412.00;;;;2062418;28;20223;-56
2021/09/11 03:49:37;;;;;;;4.50;3.50;;;;;23.70;100415.00;;;;2061469;28;20277;-57
2021/09/11 03:50:37;;;;;;;3.50;3.20;;;;;23.70;100417.00;;;;2062517;28;20382;-57
2021/09/11 03:51:37;;;;;;;3.87;3.53;;;;;23.70;100419.00;;;;2062516;28;20218;-57
2021/09/11 03:52:38;;;;;;;4.63;3.63;;;;;23.70;100419.00;;;;2062351;28;20306;-57
2021/09/11 03:53:38;;;;;;;4.70;3.50;;;;;23.70;100422.00;;;;2062570;28;20223;-57
2021/09/11 03:54:38;;;;;;;3.77;3.40;;;;;23.70;100427.00;;;;2061917;28;20230;-57
2021/09/11 03:55:39;;;;;;;4.03;3.37;;;;;23.70;100419.00;;;;2062278;28;20587;-57
2021/09/11 03:56:39;;;;;;;3.50;3.20;;;;;23.70;100418.00;;;;2060730;28;20238;-56
2021/09/11 03:57:41;;;;;;;3.80;3.50;;;;;23.70;100423.00;;;;2061384;28;20214;-56
2021/09/11 03:58:41;;;;;;;4.38;3.75;;;;;23.70;100421.00;;;;2061890;28;20250;-57
2021/09/11 03:59:42;;;;;;;3.43;3.13;;;;;23.70;100426.00;;;;2061817;28;20254;-56
2021/09/11 04:00:42;;;;;;;4.10;3.30;;;;;23.70;100418.00;;;;2062262;28;20221;-57
2021/09/11 04:01:43;;;;;;;4.37;3.47;;;;;23.70;100422.00;;;;2062466;28;20702;-56
2021/09/11 04:02:43;;;;;;;4.13;3.47;;;;;23.70;100421.00;;;;2062072;28;20238;-57
2021/09/11 04:03:43;;;;;;;4.50;3.70;;;;;23.70;100416.00;;;;2061446;28;20219;-56
2021/09/11 04:04:44;;;;;;;3.90;3.60;;;;;23.70;100420.00;;;;2061629;28;20222;-57
2021/09/11 04:05:44;;;;;;;4.10;3.70;;;;;23.70;100422.00;;;;2062917;28;20696;-56
2021/09/11 04:06:44;;;;;;;4.67;3.80;;;;;23.70;100419.00;;;;2062976;28;20219;-57
2021/09/11 04:07:45;;;;;;;4.40;4.00;;;;;23.70;100424.00;;;;2055406;28;20269;-56
2021/09/11 04:08:45;;;;;;;3.50;3.20;;;;;23.70;100422.00;;;;2063037;28;20653;-56
2021/09/11 04:09:45;;;;;;;4.93;3.80;;;;;23.70;100363.00;;;;2060667;28;22649;-57
2021/09/11 04:10:46;;;;;;;11.00;5.13;;;;;23.70;100432.00;;;;2068982;28;20693;-56
2021/09/11 04:11:46;;;;;;;4.63;4.23;;;;;23.70;100427.00;;;;2069991;28;20226;-57
2021/09/11 04:12:46;;;;;;;6.77;6.07;;;;;23.60;100430.00;;;;2059072;28;20226;-58
2021/09/11 04:13:47;;;;;;;5.33;4.83;;;;;23.70;100423.00;;;;2063243;28;20226;-58
2021/09/11 04:14:47;;;;;;;5.47;5.00;;;;;23.70;100422.00;;;;2062902;28;20238;-58
2021/09/11 04:15:47;;;;;;;6.37;5.23;;;;;23.70;100429.00;;;;2064631;28;20265;-58
2021/09/11 04:16:48;;;;;;;5.60;5.07;;;;;23.70;100430.00;;;;2070762;28;20214;-58
2021/09/11 04:17:48;;;;;;;8.67;4.93;;;;;23.70;100438.00;;;;2071181;28;20226;-56
2021/09/11 04:18:48;;;;;;;6.37;4.13;;;;;23.70;100434.00;;;;2070179;28;20217;-56
2021/09/11 04:19:49;;;;;;;6.40;4.90;;;;;23.70;100429.00;;;;2071184;28;20214;-58
2021/09/11 04:20:49;;;;;;;5.27;4.27;;;;;23.70;100433.00;;;;2070596;28;20214;-57
2021/09/11 04:21:50;;;;;;;4.70;4.30;;;;;23.70;100436.00;;;;2070787;28;20265;-57
2021/09/11 04:22:50;;;;;;;5.63;5.13;;;;;23.70;100439.00;;;;2071014;28;20754;-57
2021/09/11 04:23:50;;;;;;;7.33;6.63;;;;;23.70;100439.00;;;;2066058;28;20214;-57
2021/09/11 04:24:51;;;;;;;7.10;6.40;;;;;23.80;100438.00;;;;2068535;28;20214;-58
2021/09/11 04:25:51;;;;;;;6.33;5.40;;;;;23.80;100444.00;;;;2068854;28;20666;-58
2021/09/11 04:26:52;;;;;;;4.87;4.23;;;;;23.80;100434.00;;;;2062922;28;20634;-58
2021/09/11 04:27:53;;;;;;;5.28;4.45;;;;;23.70;100443.00;;;;2062877;28;20207;-58
2021/09/11 04:28:53;;;;;;;5.50;5.00;;;;;23.70;100441.00;;;;2061658;28;20214;-58
2021/09/11 04:29:53;;;;;;;6.27;4.40;;;;;23.70;100442.00;;;;2062695;28;20218;-57
2021/09/11 04:30:54;;;;;;;7.83;5.47;;;;;23.70;100441.00;;;;2067353;28;20209;-57
2021/09/11 04:31:54;;;;;;;8.03;6.23;;;;;23.70;100436.00;;;;2070435;28;20214;-57
2021/09/11 04:32:54;;;;;;;7.70;6.07;;;;;23.70;100446.00;;;;2070826;28;20218;-57
2021/09/11 04:33:55;;;;;;;5.20;4.70;;;;;23.70;100443.00;;;;2070877;28;20206;-57
2021/09/11 04:34:55;;;;;;;5.37;4.40;;;;;23.70;100440.00;;;;2070371;28;20206;-58
2021/09/11 04:35:56;;;;;;;6.90;6.30;;;;;23.70;100411.00;;;;2070433;28;20214;-58
2021/09/11 04:36:56;;;;;;;7.40;5.00;;;;;23.70;100440.00;;;;2068614;28;20214;-58
2021/09/11 04:37:57;;;;;;;5.90;5.20;;;;;23.70;100448.00;;;;2064431;28;20215;-58
2021/09/11 04:38:57;;;;;;;4.90;4.50;;;;;23.70;100438.00;;;;2057704;28;20211;-58
2021/09/11 04:39:59;;;;;;;6.80;5.40;;;;;23.70;100444.00;;;;2062676;28;20215;-57
2021/09/11 04:40:59;;;;;;;7.57;6.82;;;;;23.70;100450.00;;;;2062852;28;20277;-57
2021/09/11 04:41:59;;;;;;;10.63;5.40;;;;;23.70;100442.00;;;;2062864;28;20219;-57
2021/09/11 04:43:00;;;;;;;6.77;6.07;;;;;23.70;100449.00;;;;2062840;28;20297;-58
2021/09/11 04:44:00;;;;;;;7.30;5.47;;;;;23.70;100447.00;;;;2062809;28;20224;-57
2021/09/11 04:45:01;;;;;;;6.17;5.57;;;;;23.70;100454.00;;;;2062652;28;20222;-58
2021/09/11 04:46:01;;;;;;;5.57;5.07;;;;;23.70;100454.00;;;;2061631;28;20231;-58
2021/09/11 04:47:01;;;;;;;5.23;4.73;;;;;23.70;100451.00;;;;2060504;28;20268;-58
2021/09/11 04:48:02;;;;;;;5.40;4.80;;;;;23.70;100462.00;;;;2057134;28;20254;-57
2021/09/11 04:49:02;;;;;;;8.97;8.27;;;;;23.70;100453.00;;;;2060833;28;20223;-58
2021/09/11 04:50:03;;;;;;;6.10;5.60;;;;;23.70;100456.00;;;;2060385;28;20210;-62
2021/09/11 04:51:03;;;;;;;5.50;4.83;;;;;23.70;100458.00;;;;2061762;28;20203;-58
2021/09/11 04:52:05;;;;;;;5.80;4.53;;;;;23.70;100458.00;;;;2061715;28;20219;-58
2021/09/11 04:53:05;;;;;;;6.10;5.28;;;;;23.70;100455.00;;;;2062513;28;20297;-58
2021/09/11 04:54:06;;;;;;;4.47;4.07;;;;;23.70;100463.00;;;;2062158;28;20210;-57
2021/09/11 04:55:09;;;;;;;5.40;4.70;;;;;23.70;100459.00;;;;2062034;28;20214;-57
2021/09/11 04:56:10;;;;;;;5.70;5.20;;;;;23.70;100456.00;;;;2062509;28;20664;-57
2021/09/11 04:57:10;;;;;;;5.43;4.93;;;;;23.70;100459.00;;;;2062820;28;20306;-58
2021/09/11 04:58:10;;;;;;;4.93;4.53;;;;;23.70;100458.00;;;;2062100;28;20218;-58
2021/09/11 04:59:11;;;;;;;5.90;5.40;;;;;23.70;100458.00;;;;2063225;28;20683;-57